Main page
METAR-TAF:

METAR-TAF

Airports :

Khartoum International Airport

Khartoum, Sudan

latitude: 15-36N, longitude: 032-33E, elevation: 382 m

Current weather observation

The report was made 30 minutes ago, at 05:00 UTC
Wind 10 kt from the North
Temperature 26°C
Humidity 10%
Pressure 1012 hPa
Visibility 10 km or more
no clouds below 1500 m and no cumulonimbus

METAR: HSSS 240500Z 01010KT CAVOK 26/M08 Q1012 NOSIG

Time: 08:30 (05:30 UTC)

Forecast

The report was made 6 hours and 30 minutes ago, at 23:00 UTC
Forecast valid from 24 at 00 UTC to 25 at 06 UTC
Wind 10 kt from the North with gusts up to 20 kt
Visibility 10 km or more
no clouds below 1500 m and no cumulonimbus
Temporary
from 24 at 03 UTC to 24 at 09 UTC
Visibility: 4000 m
Blowing sand

TAF: HSSS 232300Z 2400/2506 36010G20KT CAVOK TEMPO 2403/2409 4000 BLSA

Weather observations and forecasts of more than 4000 airports (METAR and TAF reports).

The available stations are represented by yellow and red dots on the map.

Hover mouse over dot to see the name of the station.

Then click to see weather observations and forecasts.

To change the map : click on the green buttons with a black cross to zoom in, on the green button with a dash to zoom out, or on the green arrows for adjacent maps.


METAR-TAF: